This is the latest recevied weather packets stored in our database for station/object HP1COO-13. If no packets are shown the sender has not sent any weather packets the latest 10 day(s).
| Time | Temp. | Humidity | Pressure | Rain* | Wind** | Luminosity | Snow |
|---|---|---|---|---|---|---|---|
| 1787931675 | 30.56° C | 80% | 1007.5 hPa | 0 mm | - | - | - |
| 1787931042 | 30.56° C | 79% | 1007.7 hPa | 0 mm | - | - | - |
| 1787930409 | 30.56° C | 81% | 1007.7 hPa | 0 mm | - | - | - |
| 1787929776 | 30.56° C | 81% | 1007.8 hPa | 0 mm | - | - | - |
| 1787929143 | 30.56° C | 80% | 1007.8 hPa | 0 mm | - | - | - |
| 1787928510 | 30° C | 81% | 1008 hPa | 0 mm | - | - | - |
| 1787927877 | 28.89° C | 84% | 1008 hPa | 0 mm | - | - | - |
| 1787927244 | 27.78° C | 87% | 1008.2 hPa | 0 mm | - | - | - |
| 1787926611 | 27.22° C | 89% | 1008.4 hPa | 0 mm | - | - | - |
| 1787925978 | 27.78° C | 87% | 1008.4 hPa | 0 mm | - | - | - |
| 1787924712 | 28.89° C | 88% | 1008.2 hPa | 0 mm | - | - | - |
| 1787924079 | 28.89° C | 88% | 1008.5 hPa | 0 mm | - | - | - |
| 1787923446 | 28.89° C | 89% | 1008.4 hPa | 0 mm | - | - | - |
| 1787922813 | 28.33° C | 91% | 1008.2 hPa | 0 mm | - | - | - |
| 1787922180 | 27.78° C | 92% | 1008.1 hPa | 0 mm | - | - | - |
| 1787921547 | 27.78° C | 93% | 1008 hPa | 0 mm | - | - | - |
| 1787920917 | 27.78° C | 93% | 1008 hPa | 0 mm | - | - | - |
| 1787920281 | 27.22° C | 94% | 1007.7 hPa | 0 mm | - | - | - |
| 1787919648 | 27.22° C | 95% | 1007.6 hPa | 0 mm | - | - | - |
| 1787919015 | 26.67° C | 97% | 1007.5 hPa | 0 mm | - | - | - |
| 1787918382 | 26.67° C | 98% | 1007.4 hPa | 0 mm | - | - | - |
| 1787917749 | 26.11° C | 99% | 1007.5 hPa | 0 mm | - | - | - |
| 1787917116 | 26.11° C | 99% | 1007.4 hPa | 0 mm | - | - | - |
| 1787916483 | 26.11° C | 99% | 1007.3 hPa | 0 mm | - | - | - |
| 1787915850 | 25.56° C | 99% | 1007.4 hPa | 0 mm | - | - | - |
* Rain latest hour (hover to see other rain measurements)
** Current wind speed in m/s (hover to see current wind gust speed)